sensor_id;sensor_type;location;lat;lon;timestamp;P1;durP1;ratioP1;P2;durP2;ratioP2
2624;SDS011;1322;53.256;10.386;2023-04-25T00:01:05;6.30;;;4.43;;
2624;SDS011;1322;53.256;10.386;2023-04-25T00:03:31;6.00;;;4.60;;
2624;SDS011;1322;53.256;10.386;2023-04-25T00:05:58;9.03;;;4.83;;
2624;SDS011;1322;53.256;10.386;2023-04-25T00:08:26;5.53;;;3.80;;
2624;SDS011;1322;53.256;10.386;2023-04-25T00:10:53;9.10;;;5.17;;
2624;SDS011;1322;53.256;10.386;2023-04-25T00:13:19;7.90;;;4.37;;
2624;SDS011;1322;53.256;10.386;2023-04-25T00:15:46;5.03;;;4.63;;
2624;SDS011;1322;53.256;10.386;2023-04-25T00:18:13;6.50;;;4.63;;
2624;SDS011;1322;53.256;10.386;2023-04-25T00:20:39;5.73;;;4.33;;
2624;SDS011;1322;53.256;10.386;2023-04-25T00:23:05;7.10;;;4.53;;
2624;SDS011;1322;53.256;10.386;2023-04-25T00:25:31;4.57;;;4.13;;
2624;SDS011;1322;53.256;10.386;2023-04-25T00:27:57;6.40;;;4.43;;
2624;SDS011;1322;53.256;10.386;2023-04-25T00:30:23;5.57;;;4.30;;
2624;SDS011;1322;53.256;10.386;2023-04-25T00:32:49;5.50;;;4.30;;
2624;SDS011;1322;53.256;10.386;2023-04-25T00:35:15;6.43;;;4.10;;
2624;SDS011;1322;53.256;10.386;2023-04-25T00:37:41;5.67;;;4.53;;
2624;SDS011;1322;53.256;10.386;2023-04-25T00:40:07;13.23;;;4.80;;
2624;SDS011;1322;53.256;10.386;2023-04-25T00:42:34;7.80;;;4.43;;
2624;SDS011;1322;53.256;10.386;2023-04-25T00:45:01;9.20;;;4.80;;
2624;SDS011;1322;53.256;10.386;2023-04-25T00:47:29;7.53;;;5.20;;
2624;SDS011;1322;53.256;10.386;2023-04-25T00:49:55;5.50;;;4.77;;
2624;SDS011;1322;53.256;10.386;2023-04-25T00:52:21;5.10;;;4.50;;
2624;SDS011;1322;53.256;10.386;2023-04-25T00:54:48;7.47;;;4.83;;
2624;SDS011;1322;53.256;10.386;2023-04-25T00:57:14;6.90;;;4.67;;
2624;SDS011;1322;53.256;10.386;2023-04-25T00:59:40;6.57;;;4.87;;
2624;SDS011;1322;53.256;10.386;2023-04-25T01:02:09;6.10;;;5.47;;
2624;SDS011;1322;53.256;10.386;2023-04-25T01:04:36;5.60;;;5.07;;
2624;SDS011;1322;53.256;10.386;2023-04-25T01:07:02;9.50;;;5.03;;
2624;SDS011;1322;53.256;10.386;2023-04-25T01:09:28;10.80;;;4.80;;
2624;SDS011;1322;53.256;10.386;2023-04-25T01:11:56;5.97;;;5.40;;
2624;SDS011;1322;53.256;10.386;2023-04-25T01:14:22;8.50;;;5.23;;
2624;SDS011;1322;53.256;10.386;2023-04-25T01:16:48;12.17;;;4.53;;
2624;SDS011;1322;53.256;10.386;2023-04-25T01:19:16;6.87;;;4.40;;
2624;SDS011;1322;53.256;10.386;2023-04-25T01:21:43;6.87;;;4.00;;
2624;SDS011;1322;53.256;10.386;2023-04-25T01:24:10;12.23;;;4.10;;
2624;SDS011;1322;53.256;10.386;2023-04-25T01:26:36;8.20;;;5.10;;
2624;SDS011;1322;53.256;10.386;2023-04-25T01:32:24;8.40;;;3.97;;
2624;SDS011;1322;53.256;10.386;2023-04-25T01:34:51;7.30;;;3.23;;
2624;SDS011;1322;53.256;10.386;2023-04-25T01:37:17;7.17;;;3.77;;
2624;SDS011;1322;53.256;10.386;2023-04-25T01:39:43;6.90;;;3.43;;
2624;SDS011;1322;53.256;10.386;2023-04-25T01:42:09;7.03;;;3.93;;
2624;SDS011;1322;53.256;10.386;2023-04-25T01:44:35;5.90;;;3.30;;
2624;SDS011;1322;53.256;10.386;2023-04-25T01:47:01;7.50;;;2.87;;
2624;SDS011;1322;53.256;10.386;2023-04-25T01:49:30;11.10;;;3.07;;
2624;SDS011;1322;53.256;10.386;2023-04-25T01:51:56;13.03;;;2.97;;
2624;SDS011;1322;53.256;10.386;2023-04-25T01:54:22;8.40;;;3.30;;
2624;SDS011;1322;53.256;10.386;2023-04-25T01:56:52;12.47;;;3.83;;
2624;SDS011;1322;53.256;10.386;2023-04-25T01:59:18;12.73;;;5.03;;
2624;SDS011;1322;53.256;10.386;2023-04-25T02:01:45;14.63;;;4.30;;
2624;SDS011;1322;53.256;10.386;2023-04-25T02:04:11;14.23;;;3.03;;
2624;SDS011;1322;53.256;10.386;2023-04-25T02:06:37;16.03;;;3.10;;
2624;SDS011;1322;53.256;10.386;2023-04-25T02:09:03;16.80;;;4.73;;
2624;SDS011;1322;53.256;10.386;2023-04-25T02:14:36;12.40;;;3.70;;
2624;SDS011;1322;53.256;10.386;2023-04-25T02:17:02;18.03;;;3.77;;
2624;SDS011;1322;53.256;10.386;2023-04-25T02:19:28;9.30;;;3.50;;
2624;SDS011;1322;53.256;10.386;2023-04-25T02:21:57;18.03;;;4.27;;
2624;SDS011;1322;53.256;10.386;2023-04-25T02:24:23;10.57;;;4.63;;
2624;SDS011;1322;53.256;10.386;2023-04-25T02:26:49;19.13;;;4.30;;
2624;SDS011;1322;53.256;10.386;2023-04-25T02:29:18;6.13;;;3.07;;
2624;SDS011;1322;53.256;10.386;2023-04-25T02:31:44;19.63;;;3.77;;
2624;SDS011;1322;53.256;10.386;2023-04-25T02:34:10;14.33;;;3.83;;
2624;SDS011;1322;53.256;10.386;2023-04-25T02:36:36;21.80;;;4.90;;
2624;SDS011;1322;53.256;10.386;2023-04-25T02:39:02;8.33;;;3.33;;
2624;SDS011;1322;53.256;10.386;2023-04-25T02:41:28;15.70;;;4.00;;
2624;SDS011;1322;53.256;10.386;2023-04-25T02:43:54;16.83;;;3.57;;
2624;SDS011;1322;53.256;10.386;2023-04-25T02:46:20;15.13;;;4.30;;
2624;SDS011;1322;53.256;10.386;2023-04-25T02:48:46;12.50;;;3.73;;
2624;SDS011;1322;53.256;10.386;2023-04-25T02:51:12;11.90;;;3.97;;
2624;SDS011;1322;53.256;10.386;2023-04-25T02:53:41;18.80;;;4.27;;
2624;SDS011;1322;53.256;10.386;2023-04-25T02:56:07;16.90;;;3.20;;
2624;SDS011;1322;53.256;10.386;2023-04-25T02:58:33;16.53;;;3.20;;
2624;SDS011;1322;53.256;10.386;2023-04-25T03:00:59;12.40;;;4.47;;
2624;SDS011;1322;53.256;10.386;2023-04-25T03:03:25;19.40;;;4.63;;
2624;SDS011;1322;53.256;10.386;2023-04-25T03:05:51;7.00;;;3.77;;
2624;SDS011;1322;53.256;10.386;2023-04-25T03:08:17;12.43;;;3.30;;
2624;SDS011;1322;53.256;10.386;2023-04-25T03:10:44;13.57;;;4.60;;
2624;SDS011;1322;53.256;10.386;2023-04-25T03:13:10;20.87;;;3.90;;
2624;SDS011;1322;53.256;10.386;2023-04-25T03:15:37;17.80;;;4.37;;
2624;SDS011;1322;53.256;10.386;2023-04-25T03:18:03;15.67;;;4.67;;
2624;SDS011;1322;53.256;10.386;2023-04-25T03:20:29;13.20;;;3.50;;
2624;SDS011;1322;53.256;10.386;2023-04-25T03:22:56;19.30;;;4.43;;
2624;SDS011;1322;53.256;10.386;2023-04-25T03:25:22;20.20;;;4.27;;
2624;SDS011;1322;53.256;10.386;2023-04-25T03:27:48;18.70;;;3.83;;
2624;SDS011;1322;53.256;10.386;2023-04-25T03:30:14;8.63;;;3.67;;
2624;SDS011;1322;53.256;10.386;2023-04-25T03:32:40;11.63;;;3.90;;
2624;SDS011;1322;53.256;10.386;2023-04-25T03:35:06;17.33;;;4.90;;
2624;SDS011;1322;53.256;10.386;2023-04-25T03:37:32;17.90;;;3.70;;
2624;SDS011;1322;53.256;10.386;2023-04-25T03:39:58;23.37;;;5.90;;
2624;SDS011;1322;53.256;10.386;2023-04-25T03:42:24;18.37;;;4.60;;
2624;SDS011;1322;53.256;10.386;2023-04-25T03:44:51;17.37;;;3.90;;
2624;SDS011;1322;53.256;10.386;2023-04-25T03:47:16;18.57;;;4.20;;
2624;SDS011;1322;53.256;10.386;2023-04-25T03:49:42;17.17;;;4.67;;
2624;SDS011;1322;53.256;10.386;2023-04-25T03:52:09;18.53;;;4.37;;
2624;SDS011;1322;53.256;10.386;2023-04-25T03:54:35;14.83;;;3.90;;
2624;SDS011;1322;53.256;10.386;2023-04-25T03:57:01;21.97;;;4.00;;
2624;SDS011;1322;53.256;10.386;2023-04-25T03:59:27;15.03;;;3.77;;
2624;SDS011;1322;53.256;10.386;2023-04-25T04:01:53;16.07;;;3.53;;
2624;SDS011;1322;53.256;10.386;2023-04-25T04:04:20;14.13;;;4.07;;
2624;SDS011;1322;53.256;10.386;2023-04-25T04:06:46;18.73;;;4.93;;
2624;SDS011;1322;53.256;10.386;2023-04-25T04:09:12;20.17;;;4.40;;
2624;SDS011;1322;53.256;10.386;2023-04-25T04:11:38;9.33;;;3.47;;
2624;SDS011;1322;53.256;10.386;2023-04-25T04:14:05;18.77;;;4.33;;
2624;SDS011;1322;53.256;10.386;2023-04-25T04:16:31;18.60;;;4.60;;
2624;SDS011;1322;53.256;10.386;2023-04-25T04:18:57;16.60;;;4.20;;
2624;SDS011;1322;53.256;10.386;2023-04-25T04:21:23;13.80;;;3.50;;
2624;SDS011;1322;53.256;10.386;2023-04-25T04:23:49;15.20;;;4.47;;
2624;SDS011;1322;53.256;10.386;2023-04-25T04:26:15;14.27;;;3.27;;
2624;SDS011;1322;53.256;10.386;2023-04-25T04:28:41;14.10;;;4.20;;
2624;SDS011;1322;53.256;10.386;2023-04-25T04:31:07;11.40;;;3.70;;
2624;SDS011;1322;53.256;10.386;2023-04-25T04:33:34;10.30;;;3.50;;
2624;SDS011;1322;53.256;10.386;2023-04-25T04:36:00;17.37;;;3.63;;
2624;SDS011;1322;53.256;10.386;2023-04-25T04:38:27;10.23;;;4.03;;
2624;SDS011;1322;53.256;10.386;2023-04-25T04:40:54;22.07;;;4.97;;
2624;SDS011;1322;53.256;10.386;2023-04-25T04:43:20;11.33;;;3.57;;
2624;SDS011;1322;53.256;10.386;2023-04-25T04:45:48;13.47;;;3.57;;
2624;SDS011;1322;53.256;10.386;2023-04-25T04:48:15;15.30;;;4.63;;
2624;SDS011;1322;53.256;10.386;2023-04-25T04:50:42;10.50;;;4.30;;
2624;SDS011;1322;53.256;10.386;2023-04-25T04:53:10;13.50;;;3.30;;
2624;SDS011;1322;53.256;10.386;2023-04-25T04:55:37;13.23;;;4.80;;
2624;SDS011;1322;53.256;10.386;2023-04-25T04:58:03;10.67;;;3.13;;
2624;SDS011;1322;53.256;10.386;2023-04-25T05:00:29;12.00;;;3.50;;
2624;SDS011;1322;53.256;10.386;2023-04-25T05:02:55;16.93;;;4.00;;
2624;SDS011;1322;53.256;10.386;2023-04-25T05:05:21;14.03;;;3.47;;
2624;SDS011;1322;53.256;10.386;2023-04-25T05:07:47;8.53;;;3.60;;
2624;SDS011;1322;53.256;10.386;2023-04-25T05:10:13;18.60;;;4.33;;
2624;SDS011;1322;53.256;10.386;2023-04-25T05:12:40;9.00;;;3.50;;
2624;SDS011;1322;53.256;10.386;2023-04-25T05:15:06;10.63;;;3.10;;
2624;SDS011;1322;53.256;10.386;2023-04-25T05:17:32;18.40;;;3.87;;
2624;SDS011;1322;53.256;10.386;2023-04-25T05:19:58;9.17;;;3.80;;
2624;SDS011;1322;53.256;10.386;2023-04-25T05:22:24;9.80;;;3.20;;
2624;SDS011;1322;53.256;10.386;2023-04-25T05:24:51;10.37;;;3.37;;
2624;SDS011;1322;53.256;10.386;2023-04-25T05:27:17;16.63;;;3.97;;
2624;SDS011;1322;53.256;10.386;2023-04-25T05:29:44;12.93;;;3.30;;
2624;SDS011;1322;53.256;10.386;2023-04-25T05:32:10;13.53;;;4.53;;
2624;SDS011;1322;53.256;10.386;2023-04-25T05:34:36;6.67;;;2.97;;
2624;SDS011;1322;53.256;10.386;2023-04-25T05:37:02;9.43;;;4.43;;
2624;SDS011;1322;53.256;10.386;2023-04-25T05:39:28;3.77;;;3.20;;
2624;SDS011;1322;53.256;10.386;2023-04-25T05:41:54;12.90;;;3.23;;
2624;SDS011;1322;53.256;10.386;2023-04-25T05:44:20;10.00;;;3.60;;
2624;SDS011;1322;53.256;10.386;2023-04-25T05:46:46;12.60;;;3.80;;
2624;SDS011;1322;53.256;10.386;2023-04-25T05:49:12;13.20;;;3.27;;
2624;SDS011;1322;53.256;10.386;2023-04-25T05:51:38;9.80;;;2.97;;
2624;SDS011;1322;53.256;10.386;2023-04-25T05:54:04;28.57;;;9.30;;
2624;SDS011;1322;53.256;10.386;2023-04-25T05:56:30;11.83;;;3.43;;
2624;SDS011;1322;53.256;10.386;2023-04-25T05:58:56;14.27;;;3.40;;
2624;SDS011;1322;53.256;10.386;2023-04-25T06:01:23;7.90;;;3.73;;
2624;SDS011;1322;53.256;10.386;2023-04-25T06:03:49;8.50;;;2.90;;
2624;SDS011;1322;53.256;10.386;2023-04-25T06:06:16;5.60;;;2.83;;
2624;SDS011;1322;53.256;10.386;2023-04-25T06:08:42;7.50;;;2.43;;
2624;SDS011;1322;53.256;10.386;2023-04-25T06:11:08;13.90;;;3.50;;
2624;SDS011;1322;53.256;10.386;2023-04-25T06:13:34;9.23;;;3.77;;
2624;SDS011;1322;53.256;10.386;2023-04-25T06:16:00;5.03;;;2.57;;
2624;SDS011;1322;53.256;10.386;2023-04-25T06:18:26;10.03;;;2.90;;
2624;SDS011;1322;53.256;10.386;2023-04-25T06:20:52;13.17;;;3.27;;
2624;SDS011;1322;53.256;10.386;2023-04-25T06:23:18;8.43;;;2.83;;
2624;SDS011;1322;53.256;10.386;2023-04-25T06:25:44;15.93;;;3.60;;
2624;SDS011;1322;53.256;10.386;2023-04-25T06:28:10;10.90;;;4.07;;
2624;SDS011;1322;53.256;10.386;2023-04-25T06:30:36;11.40;;;2.67;;
2624;SDS011;1322;53.256;10.386;2023-04-25T06:33:02;9.73;;;3.00;;
2624;SDS011;1322;53.256;10.386;2023-04-25T06:35:28;14.20;;;2.63;;
2624;SDS011;1322;53.256;10.386;2023-04-25T06:37:54;12.57;;;3.23;;
2624;SDS011;1322;53.256;10.386;2023-04-25T06:40:20;9.60;;;2.87;;
2624;SDS011;1322;53.256;10.386;2023-04-25T06:42:46;12.83;;;3.17;;
2624;SDS011;1322;53.256;10.386;2023-04-25T06:45:12;13.40;;;4.93;;
2624;SDS011;1322;53.256;10.386;2023-04-25T06:47:38;9.37;;;2.90;;
2624;SDS011;1322;53.256;10.386;2023-04-25T06:50:04;10.83;;;3.33;;
2624;SDS011;1322;53.256;10.386;2023-04-25T06:52:30;7.73;;;2.90;;
2624;SDS011;1322;53.256;10.386;2023-04-25T06:54:57;7.23;;;2.83;;
2624;SDS011;1322;53.256;10.386;2023-04-25T06:57:23;15.63;;;3.13;;
2624;SDS011;1322;53.256;10.386;2023-04-25T06:59:49;12.17;;;3.10;;
2624;SDS011;1322;53.256;10.386;2023-04-25T07:02:15;9.27;;;2.90;;
2624;SDS011;1322;53.256;10.386;2023-04-25T07:04:41;10.50;;;2.67;;
2624;SDS011;1322;53.256;10.386;2023-04-25T07:07:07;13.70;;;3.00;;
2624;SDS011;1322;53.256;10.386;2023-04-25T07:09:33;7.00;;;2.83;;
2624;SDS011;1322;53.256;10.386;2023-04-25T07:11:59;8.50;;;4.40;;
2624;SDS011;1322;53.256;10.386;2023-04-25T07:14:26;5.57;;;2.60;;
2624;SDS011;1322;53.256;10.386;2023-04-25T07:16:52;6.90;;;2.87;;
2624;SDS011;1322;53.256;10.386;2023-04-25T07:19:20;12.03;;;2.30;;
2624;SDS011;1322;53.256;10.386;2023-04-25T07:21:46;10.27;;;2.97;;
2624;SDS011;1322;53.256;10.386;2023-04-25T07:24:12;9.03;;;2.40;;
2624;SDS011;1322;53.256;10.386;2023-04-25T07:26:38;11.70;;;2.43;;
2624;SDS011;1322;53.256;10.386;2023-04-25T07:29:04;6.37;;;2.00;;
2624;SDS011;1322;53.256;10.386;2023-04-25T07:31:30;9.80;;;2.63;;
2624;SDS011;1322;53.256;10.386;2023-04-25T07:33:56;14.77;;;3.43;;
2624;SDS011;1322;53.256;10.386;2023-04-25T07:36:22;11.07;;;3.00;;
2624;SDS011;1322;53.256;10.386;2023-04-25T07:38:48;8.20;;;3.07;;
2624;SDS011;1322;53.256;10.386;2023-04-25T07:41:14;9.00;;;2.63;;
2624;SDS011;1322;53.256;10.386;2023-04-25T07:43:40;8.83;;;2.67;;
2624;SDS011;1322;53.256;10.386;2023-04-25T07:46:06;9.80;;;4.30;;
2624;SDS011;1322;53.256;10.386;2023-04-25T07:48:32;12.60;;;2.90;;
2624;SDS011;1322;53.256;10.386;2023-04-25T07:50:58;20.97;;;3.83;;
2624;SDS011;1322;53.256;10.386;2023-04-25T07:53:24;4.50;;;2.13;;
2624;SDS011;1322;53.256;10.386;2023-04-25T07:55:50;9.40;;;2.30;;
2624;SDS011;1322;53.256;10.386;2023-04-25T07:58:16;14.17;;;3.07;;
2624;SDS011;1322;53.256;10.386;2023-04-25T08:00:46;14.23;;;2.63;;
2624;SDS011;1322;53.256;10.386;2023-04-25T08:03:12;9.90;;;2.53;;
2624;SDS011;1322;53.256;10.386;2023-04-25T08:05:38;4.40;;;2.30;;
2624;SDS011;1322;53.256;10.386;2023-04-25T08:08:04;8.47;;;2.20;;
2624;SDS011;1322;53.256;10.386;2023-04-25T08:10:31;5.50;;;2.23;;
2624;SDS011;1322;53.256;10.386;2023-04-25T08:12:58;11.00;;;2.30;;
2624;SDS011;1322;53.256;10.386;2023-04-25T08:15:24;12.23;;;2.60;;
2624;SDS011;1322;53.256;10.386;2023-04-25T08:17:51;11.60;;;3.50;;
2624;SDS011;1322;53.256;10.386;2023-04-25T08:20:17;15.80;;;2.67;;
2624;SDS011;1322;53.256;10.386;2023-04-25T08:22:43;6.73;;;2.00;;
2624;SDS011;1322;53.256;10.386;2023-04-25T08:25:09;6.63;;;1.93;;
2624;SDS011;1322;53.256;10.386;2023-04-25T08:27:35;5.67;;;2.23;;
2624;SDS011;1322;53.256;10.386;2023-04-25T08:30:02;4.57;;;2.37;;
2624;SDS011;1322;53.256;10.386;2023-04-25T08:32:28;4.63;;;2.57;;
2624;SDS011;1322;53.256;10.386;2023-04-25T08:34:54;6.00;;;1.93;;
2624;SDS011;1322;53.256;10.386;2023-04-25T08:37:20;6.17;;;2.50;;
2624;SDS011;1322;53.256;10.386;2023-04-25T08:39:46;3.60;;;1.70;;
2624;SDS011;1322;53.256;10.386;2023-04-25T08:42:33;6.67;;;1.93;;
2624;SDS011;1322;53.256;10.386;2023-04-25T08:45:00;4.23;;;1.73;;
2624;SDS011;1322;53.256;10.386;2023-04-25T08:47:28;3.77;;;1.80;;
2624;SDS011;1322;53.256;10.386;2023-04-25T08:49:55;9.33;;;1.83;;
2624;SDS011;1322;53.256;10.386;2023-04-25T08:52:24;4.97;;;1.47;;
2624;SDS011;1322;53.256;10.386;2023-04-25T08:54:55;5.60;;;1.70;;
2624;SDS011;1322;53.256;10.386;2023-04-25T08:57:21;4.90;;;1.63;;
2624;SDS011;1322;53.256;10.386;2023-04-25T08:59:48;5.50;;;2.53;;
2624;SDS011;1322;53.256;10.386;2023-04-25T09:02:14;7.33;;;1.60;;
2624;SDS011;1322;53.256;10.386;2023-04-25T09:04:43;4.43;;;1.77;;
2624;SDS011;1322;53.256;10.386;2023-04-25T09:07:09;7.27;;;3.67;;
2624;SDS011;1322;53.256;10.386;2023-04-25T09:09:35;5.50;;;2.47;;
2624;SDS011;1322;53.256;10.386;2023-04-25T09:12:01;6.90;;;3.17;;
2624;SDS011;1322;53.256;10.386;2023-04-25T09:14:27;5.37;;;2.10;;
2624;SDS011;1322;53.256;10.386;2023-04-25T09:19:22;7.20;;;2.00;;
2624;SDS011;1322;53.256;10.386;2023-04-25T09:21:49;8.70;;;2.40;;
2624;SDS011;1322;53.256;10.386;2023-04-25T09:24:15;5.63;;;1.77;;
2624;SDS011;1322;53.256;10.386;2023-04-25T09:26:41;9.57;;;2.33;;
2624;SDS011;1322;53.256;10.386;2023-04-25T09:29:08;11.50;;;1.90;;
2624;SDS011;1322;53.256;10.386;2023-04-25T09:31:35;4.93;;;2.33;;
2624;SDS011;1322;53.256;10.386;2023-04-25T09:34:02;10.40;;;2.33;;
2624;SDS011;1322;53.256;10.386;2023-04-25T09:36:29;2.87;;;1.40;;
2624;SDS011;1322;53.256;10.386;2023-04-25T09:38:55;3.17;;;1.60;;
2624;SDS011;1322;53.256;10.386;2023-04-25T09:41:24;2.50;;;1.57;;
2624;SDS011;1322;53.256;10.386;2023-04-25T09:43:50;4.93;;;1.33;;
2624;SDS011;1322;53.256;10.386;2023-04-25T09:46:16;6.97;;;1.53;;
2624;SDS011;1322;53.256;10.386;2023-04-25T09:48:49;8.10;;;2.10;;
2624;SDS011;1322;53.256;10.386;2023-04-25T09:51:16;2.83;;;1.37;;
2624;SDS011;1322;53.256;10.386;2023-04-25T09:53:46;6.03;;;1.87;;
2624;SDS011;1322;53.256;10.386;2023-04-25T09:56:15;7.47;;;1.50;;
2624;SDS011;1322;53.256;10.386;2023-04-25T09:58:41;4.50;;;1.23;;
2624;SDS011;1322;53.256;10.386;2023-04-25T10:01:10;3.33;;;1.40;;
2624;SDS011;1322;53.256;10.386;2023-04-25T10:03:38;3.97;;;1.40;;
2624;SDS011;1322;53.256;10.386;2023-04-25T10:06:12;1.40;;;1.03;;
2624;SDS011;1322;53.256;10.386;2023-04-25T10:08:43;2.40;;;1.90;;
2624;SDS011;1322;53.256;10.386;2023-04-25T10:11:10;3.97;;;1.60;;
2624;SDS011;1322;53.256;10.386;2023-04-25T10:13:39;2.97;;;1.80;;
2624;SDS011;1322;53.256;10.386;2023-04-25T10:16:06;1.23;;;0.73;;
2624;SDS011;1322;53.256;10.386;2023-04-25T10:18:32;1.40;;;0.80;;
2624;SDS011;1322;53.256;10.386;2023-04-25T10:20:59;3.10;;;1.17;;
2624;SDS011;1322;53.256;10.386;2023-04-25T10:23:26;5.43;;;1.70;;
2624;SDS011;1322;53.256;10.386;2023-04-25T10:25:53;9.20;;;1.73;;
2624;SDS011;1322;53.256;10.386;2023-04-25T10:28:19;4.43;;;1.40;;
2624;SDS011;1322;53.256;10.386;2023-04-25T10:31:01;2.20;;;1.27;;
2624;SDS011;1322;53.256;10.386;2023-04-25T10:33:38;5.00;;;1.30;;
2624;SDS011;1322;53.256;10.386;2023-04-25T10:36:09;2.33;;;1.00;;
2624;SDS011;1322;53.256;10.386;2023-04-25T10:38:35;2.40;;;1.10;;
2624;SDS011;1322;53.256;10.386;2023-04-25T10:41:06;3.07;;;1.83;;
2624;SDS011;1322;53.256;10.386;2023-04-25T10:46:18;9.40;;;1.60;;
2624;SDS011;1322;53.256;10.386;2023-04-25T10:49:00;3.53;;;1.80;;
2624;SDS011;1322;53.256;10.386;2023-04-25T10:56:32;6.43;;;1.43;;
2624;SDS011;1322;53.256;10.386;2023-04-25T10:59:17;4.07;;;1.60;;
2624;SDS011;1322;53.256;10.386;2023-04-25T11:01:44;3.50;;;1.90;;
2624;SDS011;1322;53.256;10.386;2023-04-25T11:09:11;4.10;;;1.93;;
2624;SDS011;1322;53.256;10.386;2023-04-25T11:11:38;4.13;;;1.73;;
2624;SDS011;1322;53.256;10.386;2023-04-25T11:14:04;2.33;;;1.60;;
2624;SDS011;1322;53.256;10.386;2023-04-25T11:16:30;4.10;;;1.17;;
2624;SDS011;1322;53.256;10.386;2023-04-25T11:18:57;2.07;;;1.10;;
2624;SDS011;1322;53.256;10.386;2023-04-25T11:21:24;5.37;;;1.70;;
2624;SDS011;1322;53.256;10.386;2023-04-25T11:23:51;7.57;;;2.07;;
2624;SDS011;1322;53.256;10.386;2023-04-25T11:26:19;4.53;;;1.63;;
2624;SDS011;1322;53.256;10.386;2023-04-25T11:28:45;4.37;;;1.37;;
2624;SDS011;1322;53.256;10.386;2023-04-25T11:31:12;4.27;;;1.40;;
2624;SDS011;1322;53.256;10.386;2023-04-25T11:33:38;14.33;;;8.10;;
2624;SDS011;1322;53.256;10.386;2023-04-25T11:36:05;5.27;;;1.40;;
2624;SDS011;1322;53.256;10.386;2023-04-25T11:38:31;4.60;;;1.37;;
2624;SDS011;1322;53.256;10.386;2023-04-25T11:40:57;4.07;;;1.70;;
2624;SDS011;1322;53.256;10.386;2023-04-25T11:43:25;5.40;;;1.83;;
2624;SDS011;1322;53.256;10.386;2023-04-25T11:45:51;4.40;;;1.90;;
2624;SDS011;1322;53.256;10.386;2023-04-25T11:48:20;2.10;;;1.10;;
2624;SDS011;1322;53.256;10.386;2023-04-25T11:50:46;3.07;;;1.13;;
2624;SDS011;1322;53.256;10.386;2023-04-25T11:53:12;15.63;;;1.87;;
2624;SDS011;1322;53.256;10.386;2023-04-25T11:55:38;5.03;;;1.50;;
2624;SDS011;1322;53.256;10.386;2023-04-25T11:58:05;5.43;;;4.20;;
2624;SDS011;1322;53.256;10.386;2023-04-25T12:00:32;2.33;;;0.90;;
2624;SDS011;1322;53.256;10.386;2023-04-25T12:02:58;2.90;;;1.13;;
2624;SDS011;1322;53.256;10.386;2023-04-25T12:05:25;4.00;;;1.73;;
2624;SDS011;1322;53.256;10.386;2023-04-25T12:07:51;2.80;;;1.20;;
2624;SDS011;1322;53.256;10.386;2023-04-25T12:10:18;6.70;;;1.70;;
2624;SDS011;1322;53.256;10.386;2023-04-25T12:12:45;3.10;;;1.53;;
2624;SDS011;1322;53.256;10.386;2023-04-25T12:15:12;6.60;;;1.50;;
2624;SDS011;1322;53.256;10.386;2023-04-25T12:17:40;4.60;;;1.20;;
2624;SDS011;1322;53.256;10.386;2023-04-25T12:20:07;8.83;;;2.00;;
2624;SDS011;1322;53.256;10.386;2023-04-25T12:22:34;2.63;;;1.33;;
2624;SDS011;1322;53.256;10.386;2023-04-25T12:25:01;4.17;;;2.03;;
2624;SDS011;1322;53.256;10.386;2023-04-25T12:27:30;3.70;;;1.20;;
2624;SDS011;1322;53.256;10.386;2023-04-25T12:29:56;11.80;;;2.20;;
2624;SDS011;1322;53.256;10.386;2023-04-25T12:32:23;3.73;;;1.30;;
2624;SDS011;1322;53.256;10.386;2023-04-25T12:34:50;3.57;;;1.20;;
2624;SDS011;1322;53.256;10.386;2023-04-25T12:37:16;5.27;;;1.47;;
2624;SDS011;1322;53.256;10.386;2023-04-25T12:39:42;7.00;;;1.60;;
2624;SDS011;1322;53.256;10.386;2023-04-25T12:42:08;3.73;;;1.27;;
2624;SDS011;1322;53.256;10.386;2023-04-25T12:44:36;3.40;;;1.13;;
2624;SDS011;1322;53.256;10.386;2023-04-25T12:47:03;5.03;;;1.40;;
2624;SDS011;1322;53.256;10.386;2023-04-25T12:49:29;3.07;;;1.50;;
2624;SDS011;1322;53.256;10.386;2023-04-25T12:51:55;1.67;;;0.90;;
2624;SDS011;1322;53.256;10.386;2023-04-25T12:54:21;3.33;;;1.30;;
2624;SDS011;1322;53.256;10.386;2023-04-25T12:56:47;3.90;;;1.20;;
2624;SDS011;1322;53.256;10.386;2023-04-25T12:59:13;3.93;;;1.47;;
2624;SDS011;1322;53.256;10.386;2023-04-25T13:01:39;5.23;;;1.40;;
2624;SDS011;1322;53.256;10.386;2023-04-25T13:04:05;2.23;;;1.10;;
2624;SDS011;1322;53.256;10.386;2023-04-25T13:06:31;7.73;;;1.30;;
2624;SDS011;1322;53.256;10.386;2023-04-25T13:08:57;4.70;;;1.53;;
2624;SDS011;1322;53.256;10.386;2023-04-25T13:11:23;4.37;;;1.60;;
2624;SDS011;1322;53.256;10.386;2023-04-25T13:13:49;4.00;;;1.47;;
2624;SDS011;1322;53.256;10.386;2023-04-25T13:16:15;5.10;;;1.40;;
2624;SDS011;1322;53.256;10.386;2023-04-25T13:18:41;4.10;;;1.47;;
2624;SDS011;1322;53.256;10.386;2023-04-25T13:21:09;6.07;;;1.63;;
2624;SDS011;1322;53.256;10.386;2023-04-25T13:23:36;4.73;;;1.50;;
2624;SDS011;1322;53.256;10.386;2023-04-25T13:26:02;4.33;;;1.40;;
2624;SDS011;1322;53.256;10.386;2023-04-25T13:28:28;4.63;;;1.13;;
2624;SDS011;1322;53.256;10.386;2023-04-25T13:30:54;5.17;;;1.40;;
2624;SDS011;1322;53.256;10.386;2023-04-25T13:33:20;7.40;;;1.37;;
2624;SDS011;1322;53.256;10.386;2023-04-25T13:35:47;2.10;;;1.00;;
2624;SDS011;1322;53.256;10.386;2023-04-25T13:38:22;6.37;;;1.37;;
2624;SDS011;1322;53.256;10.386;2023-04-25T13:40:49;4.80;;;1.47;;
2624;SDS011;1322;53.256;10.386;2023-04-25T13:43:17;8.33;;;1.43;;
2624;SDS011;1322;53.256;10.386;2023-04-25T13:45:44;3.47;;;1.63;;
2624;SDS011;1322;53.256;10.386;2023-04-25T13:48:10;4.13;;;1.30;;
2624;SDS011;1322;53.256;10.386;2023-04-25T13:50:36;4.17;;;1.67;;
2624;SDS011;1322;53.256;10.386;2023-04-25T13:53:02;4.70;;;2.03;;
2624;SDS011;1322;53.256;10.386;2023-04-25T13:55:28;3.60;;;1.10;;
2624;SDS011;1322;53.256;10.386;2023-04-25T13:57:55;3.90;;;1.73;;
2624;SDS011;1322;53.256;10.386;2023-04-25T14:00:21;2.30;;;1.57;;
2624;SDS011;1322;53.256;10.386;2023-04-25T14:02:47;8.43;;;1.37;;
2624;SDS011;1322;53.256;10.386;2023-04-25T14:05:13;4.30;;;1.23;;
2624;SDS011;1322;53.256;10.386;2023-04-25T14:07:39;2.50;;;1.63;;
2624;SDS011;1322;53.256;10.386;2023-04-25T14:10:05;3.97;;;1.80;;
2624;SDS011;1322;53.256;10.386;2023-04-25T14:12:32;6.00;;;1.37;;
2624;SDS011;1322;53.256;10.386;2023-04-25T14:14:58;2.67;;;1.50;;
2624;SDS011;1322;53.256;10.386;2023-04-25T14:17:24;3.90;;;1.53;;
2624;SDS011;1322;53.256;10.386;2023-04-25T14:19:50;2.07;;;1.23;;
2624;SDS011;1322;53.256;10.386;2023-04-25T14:22:16;3.93;;;1.47;;
2624;SDS011;1322;53.256;10.386;2023-04-25T14:24:42;2.57;;;1.50;;
2624;SDS011;1322;53.256;10.386;2023-04-25T14:27:08;13.73;;;2.03;;
2624;SDS011;1322;53.256;10.386;2023-04-25T14:29:35;3.20;;;1.50;;
2624;SDS011;1322;53.256;10.386;2023-04-25T14:32:01;3.80;;;1.80;;
2624;SDS011;1322;53.256;10.386;2023-04-25T14:34:27;9.13;;;2.23;;
2624;SDS011;1322;53.256;10.386;2023-04-25T14:36:53;8.00;;;1.90;;
2624;SDS011;1322;53.256;10.386;2023-04-25T14:39:19;5.33;;;2.10;;
2624;SDS011;1322;53.256;10.386;2023-04-25T14:41:45;7.97;;;2.50;;
2624;SDS011;1322;53.256;10.386;2023-04-25T14:44:11;5.60;;;2.07;;
2624;SDS011;1322;53.256;10.386;2023-04-25T14:46:37;4.50;;;2.03;;
2624;SDS011;1322;53.256;10.386;2023-04-25T14:49:04;5.57;;;1.67;;
2624;SDS011;1322;53.256;10.386;2023-04-25T14:51:30;3.70;;;1.20;;
2624;SDS011;1322;53.256;10.386;2023-04-25T14:53:56;3.53;;;1.40;;
2624;SDS011;1322;53.256;10.386;2023-04-25T14:56:23;4.17;;;2.40;;
2624;SDS011;1322;53.256;10.386;2023-04-25T14:58:49;4.77;;;2.13;;
2624;SDS011;1322;53.256;10.386;2023-04-25T15:01:15;4.10;;;1.33;;
2624;SDS011;1322;53.256;10.386;2023-04-25T15:03:41;3.37;;;1.40;;
2624;SDS011;1322;53.256;10.386;2023-04-25T15:06:07;3.43;;;1.90;;
2624;SDS011;1322;53.256;10.386;2023-04-25T15:08:33;8.57;;;2.10;;
2624;SDS011;1322;53.256;10.386;2023-04-25T15:10:59;3.77;;;1.90;;
2624;SDS011;1322;53.256;10.386;2023-04-25T15:13:25;4.07;;;1.80;;
2624;SDS011;1322;53.256;10.386;2023-04-25T15:15:51;3.73;;;1.73;;